createdAt,value
2018-03-25T00:02:23.211Z,12.97
2018-03-25T00:04:52.525Z,7.30
2018-03-25T00:07:21.266Z,12.20
2018-03-25T00:09:50.187Z,9.67
2018-03-25T00:12:19.442Z,7.47
2018-03-25T00:14:47.821Z,9.47
2018-03-25T00:17:15.487Z,5.77
2018-03-25T00:19:43.161Z,7.27
2018-03-25T00:22:10.971Z,9.67
2018-03-25T00:24:38.827Z,10.37
2018-03-25T00:27:07.477Z,11.33
2018-03-25T00:29:35.454Z,12.23
2018-03-25T00:32:03.237Z,8.77
2018-03-25T00:34:31.730Z,8.90
2018-03-25T00:37:00.068Z,7.50
2018-03-25T00:39:28.861Z,9.30
2018-03-25T00:41:58.205Z,6.80
2018-03-25T00:44:26.119Z,10.70
2018-03-25T00:46:53.821Z,6.93
2018-03-25T00:49:21.652Z,7.57
2018-03-25T00:51:49.313Z,8.67
2018-03-25T00:54:18.227Z,7.03
2018-03-25T00:56:46.062Z,9.73
2018-03-25T00:59:14.595Z,6.50
2018-03-25T01:01:42.980Z,6.83
2018-03-25T01:04:11.115Z,9.77
2018-03-25T01:06:39.867Z,6.27
2018-03-25T01:09:08.886Z,9.20
2018-03-25T01:11:37.526Z,9.20
2018-03-25T01:14:05.392Z,6.30
2018-03-25T01:16:34.080Z,6.80
2018-03-25T01:19:03.476Z,7.00
2018-03-25T01:21:31.260Z,10.53
2018-03-25T01:23:58.908Z,7.03
2018-03-25T01:26:27.468Z,6.33
2018-03-25T01:28:56.625Z,6.93
2018-03-25T01:31:24.856Z,8.00
2018-03-25T01:33:53.213Z,7.40
2018-03-25T01:36:20.955Z,11.57
2018-03-25T01:38:48.760Z,9.70
2018-03-25T01:41:17.487Z,7.20
2018-03-25T01:43:45.212Z,6.63
2018-03-25T01:46:14.308Z,6.30
2018-03-25T01:48:42.138Z,10.43
2018-03-25T01:51:09.994Z,7.30
2018-03-25T01:53:38.687Z,6.43
2018-03-25T01:56:07.486Z,7.67
2018-03-25T01:58:35.415Z,6.80
2018-03-25T02:01:03.163Z,9.80
2018-03-25T02:03:31.689Z,6.47
2018-03-25T02:05:59.705Z,9.37
2018-03-25T02:08:27.717Z,6.47
2018-03-25T02:10:55.358Z,6.70
2018-03-25T02:13:23.252Z,7.00
2018-03-25T02:15:51.216Z,8.20
2018-03-25T02:18:18.994Z,5.73
2018-03-25T02:20:47.038Z,7.30
2018-03-25T02:23:15.029Z,9.53
2018-03-25T02:25:43.216Z,5.33
2018-03-25T02:28:11.935Z,6.33
2018-03-25T02:30:40.009Z,5.87
2018-03-25T02:33:07.962Z,13.17
2018-03-25T02:35:36.522Z,5.90
2018-03-25T02:38:04.480Z,5.93
2018-03-25T02:40:32.318Z,5.57
2018-03-25T02:42:59.957Z,5.00
2018-03-25T02:45:28.455Z,6.93
2018-03-25T02:47:57.094Z,5.77
2018-03-25T02:50:24.851Z,6.10
2018-03-25T02:52:52.553Z,6.90
2018-03-25T02:55:20.361Z,5.27
2018-03-25T02:57:49.020Z,7.13
2018-03-25T03:00:16.737Z,5.30
2018-03-25T03:02:45.299Z,5.13
2018-03-25T03:05:12.957Z,5.30
2018-03-25T03:07:40.726Z,5.77
2018-03-25T03:10:09.120Z,6.30
2018-03-25T03:12:36.776Z,6.60
2018-03-25T03:15:04.937Z,5.33
2018-03-25T03:17:33.576Z,5.40
2018-03-25T03:20:01.714Z,5.00
2018-03-25T03:22:29.545Z,5.20
2018-03-25T03:24:57.488Z,6.07
2018-03-25T03:27:26.078Z,4.80
2018-03-25T03:29:54.093Z,6.17
2018-03-25T03:32:22.643Z,5.40
2018-03-25T03:34:50.401Z,5.13
2018-03-25T03:37:19.300Z,5.60
2018-03-25T03:39:47.092Z,8.20
2018-03-25T03:42:14.730Z,5.93
2018-03-25T03:44:43.246Z,4.90
2018-03-25T03:47:11.916Z,5.17
2018-03-25T03:49:39.955Z,6.17
2018-03-25T03:52:08.301Z,7.30
2018-03-25T03:54:36.081Z,6.10
2018-03-25T03:57:03.862Z,5.63
2018-03-25T03:59:31.469Z,5.23
2018-03-25T04:01:59.117Z,8.13
2018-03-25T04:04:27.220Z,4.83
2018-03-25T04:06:55.828Z,7.43
2018-03-25T04:09:24.353Z,5.50
2018-03-25T04:11:52.261Z,5.97
2018-03-25T04:14:20.396Z,5.50
2018-03-25T04:16:48.219Z,5.07
2018-03-25T04:19:16.158Z,4.90
2018-03-25T04:21:44.624Z,5.67
2018-03-25T04:24:13.665Z,4.80
2018-03-25T04:26:41.449Z,5.97
2018-03-25T04:29:09.197Z,6.90
2018-03-25T04:31:36.910Z,5.93
2018-03-25T04:34:04.805Z,5.50
2018-03-25T04:36:32.571Z,5.93
2018-03-25T04:39:01.429Z,5.20
2018-03-25T04:41:29.596Z,5.40
2018-03-25T04:43:57.653Z,6.23
2018-03-25T04:46:26.113Z,5.80
2018-03-25T04:48:53.800Z,5.37
2018-03-25T04:51:21.597Z,5.73
2018-03-25T04:53:49.544Z,6.30
2018-03-25T04:56:17.990Z,4.80
2018-03-25T04:58:46.484Z,6.00
2018-03-25T05:01:14.042Z,4.63
2018-03-25T05:03:42.353Z,5.20
2018-03-25T05:06:10.034Z,6.33
2018-03-25T05:08:37.709Z,4.70
2018-03-25T05:11:06.131Z,4.70
2018-03-25T05:13:34.187Z,5.03
2018-03-25T05:16:01.875Z,5.03
2018-03-25T05:18:29.376Z,5.27
2018-03-25T05:20:57.206Z,4.63
2018-03-25T05:23:25.509Z,4.50
2018-03-25T05:25:54.137Z,5.27
2018-03-25T05:28:22.244Z,4.83
2018-03-25T05:30:50.780Z,5.83
2018-03-25T05:33:18.592Z,5.37
2018-03-25T05:35:46.279Z,4.60
2018-03-25T05:38:14.304Z,4.80
2018-03-25T05:40:41.851Z,4.50
2018-03-25T05:43:09.839Z,6.10
2018-03-25T05:45:37.744Z,4.47
2018-03-25T05:48:06.112Z,5.50
2018-03-25T05:50:34.708Z,4.77
2018-03-25T05:53:02.308Z,4.87
2018-03-25T05:55:29.980Z,4.30
2018-03-25T05:57:57.601Z,5.50
2018-03-25T06:00:25.596Z,5.20
2018-03-25T06:02:53.319Z,4.70
2018-03-25T06:05:21.878Z,4.97
2018-03-25T06:07:50.359Z,4.77
2018-03-25T06:10:18.749Z,4.47
2018-03-25T06:12:47.008Z,4.67
2018-03-25T06:15:15.103Z,4.67
2018-03-25T06:17:42.800Z,4.73
2018-03-25T06:20:11.316Z,4.63
2018-03-25T06:22:39.764Z,4.77
2018-03-25T06:25:08.221Z,5.23
2018-03-25T06:27:36.568Z,5.53
2018-03-25T06:30:04.332Z,5.07
2018-03-25T06:32:32.928Z,4.57
2018-03-25T06:35:00.889Z,4.67
2018-03-25T06:37:29.544Z,4.97
2018-03-25T06:39:58.079Z,6.40
2018-03-25T06:42:25.722Z,4.93
2018-03-25T06:44:53.486Z,5.93
2018-03-25T06:47:21.111Z,4.27
2018-03-25T06:49:49.291Z,4.83
2018-03-25T06:52:17.020Z,4.37
2018-03-25T06:54:45.882Z,4.27
2018-03-25T06:57:13.865Z,5.00
2018-03-25T06:59:42.336Z,4.23
2018-03-25T07:02:10.343Z,4.73
2018-03-25T07:04:38.211Z,4.80
2018-03-25T07:07:06.028Z,4.47
2018-03-25T07:09:34.067Z,5.10
2018-03-25T07:12:02.732Z,5.13
2018-03-25T07:14:30.458Z,3.80
2018-03-25T07:16:59.736Z,4.40
2018-03-25T07:19:27.693Z,4.80
2018-03-25T07:21:55.454Z,4.13
2018-03-25T07:24:23.271Z,5.13
2018-03-25T07:26:51.202Z,4.37
2018-03-25T07:29:18.942Z,4.57
2018-03-25T07:31:47.260Z,4.90
2018-03-25T07:34:15.006Z,3.93
2018-03-25T07:36:42.880Z,4.70
2018-03-25T07:39:11.055Z,5.40
2018-03-25T07:41:39.340Z,6.33
2018-03-25T07:44:07.072Z,4.43
2018-03-25T07:46:34.686Z,5.17
2018-03-25T07:49:02.413Z,4.60
2018-03-25T07:51:30.206Z,3.93
2018-03-25T07:53:57.959Z,4.70
2018-03-25T07:56:25.838Z,4.30
2018-03-25T07:58:53.468Z,3.83
2018-03-25T08:01:21.231Z,4.30
2018-03-25T08:03:49.165Z,4.00
2018-03-25T08:06:17.905Z,4.03
2018-03-25T08:08:45.444Z,3.87
2018-03-25T08:11:13.836Z,3.90
2018-03-25T08:13:42.214Z,4.37
2018-03-25T08:16:09.993Z,4.17
2018-03-25T08:18:38.977Z,5.00
2018-03-25T08:21:07.016Z,4.30
2018-03-25T08:23:34.656Z,3.70
2018-03-25T08:26:02.564Z,4.00
2018-03-25T08:28:30.467Z,4.50
2018-03-25T08:30:58.109Z,4.00
2018-03-25T08:33:25.638Z,3.93
2018-03-25T08:35:54.136Z,3.47
2018-03-25T08:38:23.710Z,3.63
2018-03-25T08:40:51.429Z,3.40
2018-03-25T08:43:19.143Z,3.67
2018-03-25T08:45:47.508Z,3.03
2018-03-25T08:48:15.052Z,5.17
2018-03-25T08:50:42.627Z,3.57
2018-03-25T08:53:10.243Z,3.27
2018-03-25T08:55:37.996Z,3.53
2018-03-25T08:58:06.094Z,3.40
2018-03-25T09:00:33.839Z,3.80
2018-03-25T09:03:01.696Z,4.07
2018-03-25T09:05:29.540Z,3.80
2018-03-25T09:07:57.894Z,3.70
2018-03-25T09:10:25.678Z,4.10
2018-03-25T09:12:53.476Z,4.20
2018-03-25T09:15:22.031Z,3.80
2018-03-25T09:17:50.499Z,3.47
2018-03-25T09:20:18.417Z,3.47
2018-03-25T09:22:46.174Z,3.83
2018-03-25T09:25:15.036Z,3.30
2018-03-25T09:27:42.855Z,3.63
2018-03-25T09:30:11.706Z,3.70
2018-03-25T09:32:39.676Z,4.00
2018-03-25T09:35:07.830Z,4.03
2018-03-25T09:37:36.298Z,4.13
2018-03-25T09:40:04.849Z,3.30
2018-03-25T09:42:33.311Z,3.90
2018-03-25T09:45:01.035Z,4.23
2018-03-25T09:47:29.054Z,4.20
2018-03-25T09:49:57.324Z,3.07
2018-03-25T09:52:25.300Z,6.47
2018-03-25T09:54:54.078Z,3.37
2018-03-25T09:57:22.139Z,3.33
2018-03-25T09:59:49.928Z,3.47
2018-03-25T10:02:17.875Z,4.27
2018-03-25T10:04:45.707Z,3.60
2018-03-25T10:07:14.188Z,3.10
2018-03-25T10:09:42.664Z,2.97
2018-03-25T10:12:10.454Z,3.30
2018-03-25T10:14:38.327Z,3.37
2018-03-25T10:17:06.261Z,3.17
2018-03-25T10:19:34.425Z,2.83
2018-03-25T10:22:02.295Z,4.00
2018-03-25T10:24:30.094Z,3.50
2018-03-25T10:26:59.001Z,3.00
2018-03-25T10:29:27.025Z,3.27
2018-03-25T10:31:55.422Z,3.33
2018-03-25T10:34:23.529Z,2.70
2018-03-25T10:36:51.221Z,3.17
2018-03-25T10:39:19.201Z,2.70
2018-03-25T10:41:47.533Z,3.03
2018-03-25T10:44:15.157Z,2.70
2018-03-25T10:46:42.968Z,3.13
2018-03-25T10:49:10.823Z,4.00
2018-03-25T10:51:38.482Z,3.10
2018-03-25T10:54:06.300Z,2.97
2018-03-25T10:56:34.160Z,4.70
2018-03-25T10:59:03.601Z,5.00
2018-03-25T11:01:31.366Z,3.03
2018-03-25T11:03:58.985Z,2.77
2018-03-25T11:06:26.808Z,3.40
2018-03-25T11:08:54.452Z,3.30
2018-03-25T11:11:22.197Z,3.83
2018-03-25T11:13:50.550Z,4.60
2018-03-25T11:16:18.184Z,4.93
2018-03-25T11:18:45.823Z,5.93
2018-03-25T11:21:13.420Z,4.50
2018-03-25T11:23:41.002Z,6.53
2018-03-25T11:26:09.024Z,5.80
2018-03-25T11:28:36.829Z,5.57
2018-03-25T11:31:04.502Z,5.93
2018-03-25T11:33:32.202Z,5.87
2018-03-25T11:36:03.623Z,5.33
2018-03-25T11:38:31.287Z,6.27
2018-03-25T11:40:58.974Z,5.50
2018-03-25T11:43:27.847Z,5.00
2018-03-25T11:45:56.006Z,7.47
2018-03-25T11:48:24.435Z,4.87
2018-03-25T11:50:52.506Z,6.20
2018-03-25T11:53:20.412Z,11.83
2018-03-25T11:55:48.257Z,10.17
2018-03-25T11:58:16.107Z,9.73
2018-03-25T12:00:45.930Z,10.20
2018-03-25T12:03:13.926Z,18.47
2018-03-25T12:05:42.178Z,16.00
2018-03-25T12:08:10.369Z,18.83
2018-03-25T12:10:38.671Z,14.93
2018-03-25T12:13:07.099Z,13.07
2018-03-25T12:15:34.891Z,15.13
2018-03-25T12:18:03.477Z,14.13
2018-03-25T12:20:31.687Z,13.67
2018-03-25T12:23:00.691Z,15.27
2018-03-25T12:25:31.484Z,10.10
2018-03-25T12:27:59.280Z,9.10
2018-03-25T12:30:27.423Z,15.60
2018-03-25T12:32:55.624Z,11.90
2018-03-25T12:35:24.992Z,18.63
2018-03-25T12:37:52.833Z,12.67
2018-03-25T12:40:20.895Z,11.70
2018-03-25T12:42:49.471Z,11.67
2018-03-25T12:45:19.820Z,9.27
2018-03-25T12:47:48.492Z,13.40
2018-03-25T12:50:16.240Z,9.07
2018-03-25T12:52:43.744Z,9.20
2018-03-25T12:55:11.253Z,9.93
2018-03-25T12:57:39.031Z,7.90
2018-03-25T13:00:07.360Z,7.67
2018-03-25T13:02:35.191Z,8.43
2018-03-25T13:05:03.144Z,7.27
2018-03-25T13:07:31.671Z,17.37
2018-03-25T13:09:59.292Z,7.83
2018-03-25T13:12:28.593Z,11.07
2018-03-25T13:14:56.169Z,6.70
2018-03-25T13:17:23.994Z,6.10
2018-03-25T13:19:51.498Z,7.50
2018-03-25T13:22:18.950Z,9.30
2018-03-25T13:24:46.501Z,7.07
2018-03-25T13:27:14.000Z,5.00
2018-03-25T13:29:41.911Z,4.50
2018-03-25T13:32:09.736Z,4.87
2018-03-25T13:34:38.035Z,8.57
2018-03-25T13:37:06.411Z,6.70
2018-03-25T13:39:34.116Z,5.67
2018-03-25T13:42:01.689Z,5.50
2018-03-25T13:44:30.339Z,6.70
2018-03-25T13:46:58.335Z,3.53
2018-03-25T13:49:26.149Z,6.80
2018-03-25T13:51:53.872Z,5.70
2018-03-25T13:54:21.644Z,3.37
2018-03-25T13:56:49.393Z,6.27
2018-03-25T13:59:17.591Z,7.80
2018-03-25T14:01:45.477Z,5.77
2018-03-25T14:04:13.356Z,4.93
2018-03-25T14:06:41.098Z,3.87
2018-03-25T14:09:08.874Z,6.90
2018-03-25T14:11:36.629Z,11.87
2018-03-25T14:14:04.594Z,14.13
2018-03-25T14:16:32.348Z,10.00
2018-03-25T14:19:00.409Z,10.20
2018-03-25T14:21:28.432Z,32.20
2018-03-25T14:23:56.138Z,24.53
2018-03-25T14:26:23.782Z,44.40
2018-03-25T14:28:51.464Z,51.10
2018-03-25T14:31:19.112Z,69.87
2018-03-25T14:33:47.613Z,58.90
2018-03-25T14:36:15.131Z,48.13
2018-03-25T14:38:43.517Z,40.67
2018-03-25T14:41:11.887Z,43.63
2018-03-25T14:43:40.749Z,47.93
2018-03-25T14:46:09.977Z,35.30
2018-03-25T14:48:37.784Z,40.67
2018-03-25T14:51:06.239Z,44.97
2018-03-25T14:53:34.632Z,39.27
2018-03-25T14:56:02.449Z,36.17
2018-03-25T14:58:30.839Z,39.07
2018-03-25T15:00:58.351Z,44.63
2018-03-25T15:03:25.966Z,41.30
2018-03-25T15:05:54.656Z,35.93
2018-03-25T15:08:23.192Z,30.60
2018-03-25T15:10:50.643Z,35.17
2018-03-25T15:13:18.158Z,31.97
2018-03-25T15:15:46.511Z,39.40
2018-03-25T15:18:14.035Z,34.30
2018-03-25T15:20:41.590Z,33.00
2018-03-25T15:23:09.110Z,27.27
2018-03-25T15:25:37.521Z,30.63
2018-03-25T15:28:05.356Z,29.47
2018-03-25T15:30:33.637Z,30.90
2018-03-25T15:33:02.050Z,26.43
2018-03-25T15:35:29.662Z,26.43
2018-03-25T15:37:57.166Z,26.87
2018-03-25T15:40:25.440Z,23.47
2018-03-25T15:42:52.994Z,23.80
2018-03-25T15:45:20.459Z,22.60
2018-03-25T15:47:49.386Z,25.97
2018-03-25T15:50:17.834Z,25.03
2018-03-25T15:52:45.353Z,20.37
2018-03-25T15:55:13.556Z,27.30
2018-03-25T15:57:41.052Z,13.10
2018-03-25T16:00:08.980Z,23.07
2018-03-25T16:02:36.425Z,17.07
2018-03-25T16:05:04.079Z,15.70
2018-03-25T16:07:32.430Z,16.00
2018-03-25T16:10:00.822Z,15.00
2018-03-25T16:12:29.396Z,17.20
2018-03-25T16:14:59.025Z,21.20
2018-03-25T16:17:26.593Z,21.10
2018-03-25T16:19:54.989Z,20.23
2018-03-25T16:22:22.655Z,17.40
2018-03-25T16:24:50.134Z,17.77
2018-03-25T16:27:17.636Z,16.17
2018-03-25T16:29:45.159Z,17.17
2018-03-25T16:32:14.039Z,16.67
2018-03-25T16:34:41.503Z,17.93
2018-03-25T16:37:09.028Z,17.80
2018-03-25T16:39:36.667Z,13.37
2018-03-25T16:42:04.899Z,20.67
2018-03-25T16:44:32.338Z,14.43
2018-03-25T16:46:59.896Z,13.83
2018-03-25T16:49:27.353Z,11.70
2018-03-25T16:51:54.780Z,15.47
2018-03-25T16:54:23.371Z,14.93
2018-03-25T16:56:50.994Z,12.40
2018-03-25T16:59:18.678Z,9.33
2018-03-25T17:01:46.234Z,11.63
2018-03-25T17:04:14.513Z,11.50
2018-03-25T17:06:42.709Z,12.87
2018-03-25T17:09:11.373Z,11.43
2018-03-25T17:11:39.685Z,13.30
2018-03-25T17:14:07.183Z,10.43
2018-03-25T17:16:34.644Z,14.63
2018-03-25T17:19:02.135Z,9.87
2018-03-25T17:21:30.292Z,9.73
2018-03-25T17:23:59.607Z,11.53
2018-03-25T17:26:28.185Z,11.00
2018-03-25T17:28:56.642Z,10.17
2018-03-25T17:31:24.504Z,10.40
2018-03-25T17:33:52.399Z,14.63
2018-03-25T17:36:20.661Z,12.53
2018-03-25T17:38:48.161Z,11.33
2018-03-25T17:41:16.402Z,12.40
2018-03-25T17:43:43.986Z,9.57
2018-03-25T17:46:13.587Z,11.13
2018-03-25T17:48:41.804Z,7.43
2018-03-25T17:51:09.300Z,9.77
2018-03-25T17:53:36.835Z,7.97
2018-03-25T17:56:04.370Z,8.53
2018-03-25T17:58:31.882Z,11.97
2018-03-25T18:01:00.438Z,7.30
2018-03-25T18:03:27.865Z,7.43
2018-03-25T18:05:55.387Z,10.17
2018-03-25T18:08:23.532Z,8.10
2018-03-25T18:10:51.052Z,7.53
2018-03-25T18:13:18.693Z,8.13
2018-03-25T18:15:47.377Z,9.07
2018-03-25T18:18:15.815Z,7.03
2018-03-25T18:20:43.430Z,6.60
2018-03-25T18:23:10.910Z,6.90
2018-03-25T18:25:39.422Z,7.70
2018-03-25T18:28:07.077Z,8.43
2018-03-25T18:30:36.356Z,6.43
2018-03-25T18:33:04.294Z,7.70
2018-03-25T18:35:32.246Z,6.17
2018-03-25T18:38:00.603Z,5.50
2018-03-25T18:40:28.238Z,6.60
2018-03-25T18:42:55.784Z,6.53
2018-03-25T18:45:24.334Z,6.23
2018-03-25T18:47:53.761Z,6.43
2018-03-25T18:50:21.208Z,6.77
2018-03-25T18:52:48.858Z,5.83
2018-03-25T18:55:17.132Z,8.17
2018-03-25T18:57:44.706Z,7.83
2018-03-25T19:00:12.247Z,6.83
2018-03-25T19:02:41.050Z,6.40
2018-03-25T19:05:08.622Z,6.83
2018-03-25T19:07:36.197Z,6.70
2018-03-25T19:10:03.674Z,5.00
2018-03-25T19:12:31.222Z,6.63
2018-03-25T19:14:58.803Z,4.20
2018-03-25T19:17:27.416Z,7.33
2018-03-25T19:19:57.161Z,5.80
2018-03-25T19:22:24.973Z,5.53
2018-03-25T19:24:52.620Z,4.80
2018-03-25T19:27:21.193Z,4.60
2018-03-25T19:29:49.792Z,3.97
2018-03-25T19:32:17.953Z,4.67
2018-03-25T19:34:45.947Z,4.53
2018-03-25T19:37:13.665Z,4.07
2018-03-25T19:39:43.084Z,4.57
2018-03-25T19:42:11.538Z,5.87
2018-03-25T19:44:39.286Z,3.90
2018-03-25T19:47:09.742Z,4.37
2018-03-25T19:49:39.271Z,3.70
2018-03-25T19:52:08.675Z,4.33
2018-03-25T19:54:37.178Z,4.03
2018-03-25T19:57:09.142Z,4.60
2018-03-25T19:59:38.593Z,4.53
2018-03-25T20:02:07.432Z,3.67
2018-03-25T20:04:35.150Z,4.10
2018-03-25T20:07:03.039Z,4.70
2018-03-25T20:09:31.596Z,3.30
2018-03-25T20:11:59.422Z,4.27
2018-03-25T20:14:27.885Z,4.30
2018-03-25T20:16:56.711Z,4.13
2018-03-25T20:19:25.135Z,3.80
2018-03-25T20:21:52.881Z,3.37
2018-03-25T20:24:20.901Z,3.90
2018-03-25T20:26:48.705Z,6.33
2018-03-25T20:29:16.972Z,4.67
2018-03-25T20:31:44.843Z,3.10
2018-03-25T20:34:12.591Z,3.47
2018-03-25T20:36:41.253Z,3.27
2018-03-25T20:39:10.059Z,4.03
2018-03-25T20:41:38.127Z,3.00
2018-03-25T20:44:06.814Z,3.50
2018-03-25T20:46:35.507Z,4.20
2018-03-25T20:49:03.446Z,4.10
2018-03-25T20:51:32.589Z,3.13
2018-03-25T20:54:00.488Z,4.97
2018-03-25T20:56:28.452Z,2.60
2018-03-25T20:58:56.370Z,3.30
2018-03-25T21:01:24.564Z,2.93
2018-03-25T21:03:52.618Z,4.10
2018-03-25T21:06:22.886Z,2.83
2018-03-25T21:08:52.018Z,3.10
2018-03-25T21:11:20.800Z,4.73
2018-03-25T21:13:48.540Z,2.50
2018-03-25T21:16:16.550Z,3.20
2018-03-25T21:18:46.926Z,2.70
2018-03-25T21:21:15.560Z,3.17
2018-03-25T21:23:46.174Z,2.70
2018-03-25T21:26:15.442Z,3.40
2018-03-25T21:28:44.110Z,3.67
2018-03-25T21:31:11.817Z,2.47
2018-03-25T21:33:40.158Z,2.80
2018-03-25T21:36:08.123Z,2.50
2018-03-25T21:38:35.755Z,2.57
2018-03-25T21:41:04.432Z,4.90
2018-03-25T21:43:36.055Z,2.50
2018-03-25T21:46:06.286Z,2.60
2018-03-25T21:48:36.093Z,2.90
2018-03-25T21:51:05.347Z,3.00
2018-03-25T21:53:33.797Z,4.53
2018-03-25T21:56:01.502Z,2.77
2018-03-25T21:58:30.151Z,2.33
2018-03-25T22:00:59.658Z,2.67
2018-03-25T22:03:27.455Z,2.63
2018-03-25T22:05:56.089Z,2.47
2018-03-25T22:08:24.655Z,2.83
2018-03-25T22:10:53.237Z,3.67
2018-03-25T22:13:21.064Z,3.20
2018-03-25T22:15:48.706Z,2.50
2018-03-25T22:18:17.143Z,2.80
2018-03-25T22:20:46.528Z,2.60
2018-03-25T22:23:14.052Z,2.60
2018-03-25T22:25:42.757Z,2.40
2018-03-25T22:28:10.248Z,5.60
2018-03-25T22:30:38.552Z,2.47
2018-03-25T22:33:08.075Z,2.77
2018-03-25T22:35:38.328Z,2.60
2018-03-25T22:38:06.243Z,2.30
2018-03-25T22:40:34.688Z,2.80
2018-03-25T22:43:02.361Z,2.40
2018-03-25T22:45:30.409Z,2.73
2018-03-25T22:47:58.063Z,3.10
2018-03-25T22:50:27.556Z,2.30
2018-03-25T22:52:57.006Z,2.70
2018-03-25T22:55:25.419Z,3.57
2018-03-25T22:57:53.832Z,2.03
2018-03-25T23:00:22.201Z,2.57
2018-03-25T23:02:50.364Z,2.63
2018-03-25T23:05:18.008Z,2.77
2018-03-25T23:07:46.337Z,2.63
2018-03-25T23:10:14.174Z,4.00
2018-03-25T23:12:42.659Z,2.13
2018-03-25T23:15:10.993Z,2.77
2018-03-25T23:17:39.484Z,3.00
2018-03-25T23:20:07.996Z,2.80
2018-03-25T23:22:36.434Z,4.10
2018-03-25T23:25:06.509Z,2.60
2018-03-25T23:27:34.416Z,2.33
2018-03-25T23:30:01.973Z,3.63
2018-03-25T23:32:30.358Z,3.20
2018-03-25T23:34:57.840Z,3.13
2018-03-25T23:37:25.726Z,2.20
2018-03-25T23:39:53.689Z,5.53
2018-03-25T23:42:22.090Z,3.60
2018-03-25T23:44:49.594Z,2.53
2018-03-25T23:47:17.228Z,2.53
2018-03-25T23:49:44.758Z,2.40
2018-03-25T23:52:13.522Z,2.20
2018-03-25T23:54:42.132Z,2.57
2018-03-25T23:57:09.886Z,2.47
2018-03-25T23:59:38.368Z,2.40
